Terminal Aerodrome Forecast
Issued by NWS Sioux Falls, SD

Home | Current Version | Previous Version | Graphics & Text | Print | Product List | Glossary Off
Versions: 1 2 3 4 5 6 7 8 9 10 11 12 13 14 15 16 17

000
FTUS43 KFSD 221130
TAFFSD
TAF
KFSD 221130Z 2212/2312 30008KT P6SM SKC
     FM221500 32014G20KT P6SM SKC
     FM230100 34005KT P6SM SKC
     FM230800 VRB03KT P6SM FEW120=

USA.gov is the U.S. government's official web portal to all federal, state and local government web resources and services.